Time;durP1;ratioP1;P1;durP2;ratioP2;P2;SDS_P1;SDS_P2;PMS_P1;PMS_P2;Temp;Humidity;BMP_temperature;BMP_pressure;BME280_temperature;BME280_humidity;BME280_pressure;Samples;Min_cycle;Max_cycle;Signal;HPM_P1;HPM_P2
2021/10/11 00:00:41;;;;;;;30.30;16.60;;;;;;;4.14;62.99;100865.57;1728352;80;21423;-68
2021/10/11 00:03:08;;;;;;;26.15;16.85;;;;;;;4.13;63.05;100863.41;1746680;80;21797;-71
2021/10/11 00:05:34;;;;;;;25.67;17.33;;;;;;;4.12;63.15;100862.95;1738437;80;21623;-69
2021/10/11 00:08:01;;;;;;;24.18;17.35;;;;;;;4.10;63.21;100858.18;1735923;80;21494;-68
2021/10/11 00:10:30;;;;;;;26.90;16.50;;;;;;;4.07;63.23;100860.36;1744993;79;21588;-69
2021/10/11 00:12:57;;;;;;;29.17;16.00;;;;;;;4.04;63.19;100859.47;1750174;80;20970;-66
2021/10/11 00:15:24;;;;;;;28.47;15.93;;;;;;;4.00;63.23;100853.38;1729802;80;21530;-68
2021/10/11 00:17:51;;;;;;;23.47;16.05;;;;;;;3.97;63.29;100852.06;1742510;80;25976;-66
2021/10/11 00:20:18;;;;;;;21.93;16.00;;;;;;;3.95;63.85;100845.98;1743571;80;21478;-67
2021/10/11 00:22:44;;;;;;;24.90;15.03;;;;;;;3.95;63.85;100845.98;1739132;80;21512;-68
2021/10/11 00:25:13;;;;;;;22.87;14.87;;;;;;;4.04;64.09;100843.86;1746365;80;21542;-69
2021/10/11 00:27:40;;;;;;;20.77;14.73;;;;;;;4.24;64.25;100846.08;1739151;80;21706;-68
2021/10/11 00:30:09;;;;;;;25.43;15.20;;;;;;;4.36;64.05;100845.67;1740762;80;20950;-68
2021/10/11 00:32:36;;;;;;;28.27;15.63;;;;;;;4.37;63.84;100840.47;1726634;80;21543;-69
2021/10/11 00:35:04;;;;;;;25.05;16.10;;;;;;;4.39;63.65;100843.05;1740492;80;21629;-68
2021/10/11 00:37:32;;;;;;;24.85;15.20;;;;;;;4.37;63.66;100842.19;1745196;80;21598;-68
2021/10/11 00:39:58;;;;;;;26.42;14.93;;;;;;;4.36;63.52;100841.77;1731875;79;21545;-68
2021/10/11 00:42:25;;;;;;;19.87;15.53;;;;;;;4.33;63.56;100847.81;1739876;80;21076;-69
2021/10/11 00:44:52;;;;;;;25.57;15.85;;;;;;;4.31;63.56;100840.44;1739065;80;21450;-69
2021/10/11 00:47:18;;;;;;;20.55;14.98;;;;;;;4.31;63.55;100839.14;1748177;80;21486;-69
2021/10/11 00:49:45;;;;;;;24.80;16.73;;;;;;;4.32;63.45;100846.54;1754720;80;21581;-69
2021/10/11 00:52:12;;;;;;;28.90;16.45;;;;;;;4.29;63.46;100840.87;1748358;80;22067;-68
2021/10/11 00:54:39;;;;;;;25.47;16.80;;;;;;;4.26;63.50;100833.08;1752075;80;21549;-68
2021/10/11 00:57:05;;;;;;;30.00;17.67;;;;;;;4.24;63.55;100836.11;1749126;80;21426;-68
2021/10/11 00:59:32;;;;;;;29.73;17.43;;;;;;;4.25;63.46;100827.42;1732180;80;21617;-69
2021/10/11 01:01:59;;;;;;;26.12;17.67;;;;;;;4.21;63.54;100825.68;1728833;80;22320;-69
2021/10/11 01:04:26;;;;;;;27.77;17.67;;;;;;;4.17;63.67;100824.80;1741224;80;22144;-69
2021/10/11 01:06:52;;;;;;;26.07;16.48;;;;;;;4.15;63.72;100823.94;1714347;80;21486;-70
2021/10/11 01:09:19;;;;;;;26.50;15.15;;;;;;;4.10;63.64;100827.81;1739256;80;21558;-69
2021/10/11 01:11:49;;;;;;;24.15;15.15;;;;;;;4.08;64.07;100827.37;1740367;80;21535;-68
2021/10/11 01:14:14;;;;;;;24.45;15.45;;;;;;;4.19;64.31;100825.67;1734720;80;21532;-69
2021/10/11 01:16:41;;;;;;;22.00;15.13;;;;;;;4.16;64.21;100820.45;1753052;80;21742;-70
2021/10/11 01:19:08;;;;;;;24.47;15.30;;;;;;;4.07;64.23;100823.91;1746380;79;21666;-70
2021/10/11 01:21:35;;;;;;;22.03;15.33;;;;;;;4.00;64.21;100818.69;1750199;80;21563;-68
2021/10/11 01:24:02;;;;;;;23.40;15.32;;;;;;;3.95;64.08;100818.66;1749817;79;21550;-69
2021/10/11 01:26:41;;;;;;;29.80;15.73;;;;;;;3.86;64.03;100816.92;1754259;80;21489;-69
2021/10/11 01:29:09;;;;;;;25.48;16.15;;;;;;;3.79;64.03;100809.95;1761175;80;21542;-69
2021/10/11 01:31:37;;;;;;;26.95;17.02;;;;;;;3.70;64.02;100809.91;1754180;80;21571;-69
2021/10/11 01:34:05;;;;;;;22.87;16.15;;;;;;;3.64;64.15;100805.99;1749802;80;21406;-69
2021/10/11 01:36:32;;;;;;;27.87;16.70;;;;;;;3.58;64.29;100800.34;1747871;80;21604;-69
2021/10/11 01:39:01;;;;;;;27.87;17.73;;;;;;;3.57;64.56;100801.62;1751797;80;21528;-69
2021/10/11 01:41:28;;;;;;;33.10;17.10;;;;;;;3.54;64.75;100800.30;1749346;80;22153;-69
2021/10/11 01:43:56;;;;;;;26.55;16.77;;;;;;;3.52;64.77;100797.69;1750051;80;21434;-69
2021/10/11 01:46:24;;;;;;;28.73;17.73;;;;;;;3.48;64.96;100794.23;1755994;80;23429;-69
2021/10/11 01:48:53;;;;;;;27.48;16.42;;;;;;;3.46;65.01;100790.72;1752184;80;21506;-69
2021/10/11 01:51:19;;;;;;;23.07;16.63;;;;;;;3.44;65.05;100792.89;1758913;80;20969;-69
2021/10/11 01:53:46;;;;;;;23.70;17.03;;;;;;;3.41;65.27;100785.95;1749254;80;21808;-69
2021/10/11 01:56:14;;;;;;;29.63;15.20;;;;;;;3.40;65.44;100786.80;1727312;80;21514;-69
2021/10/11 01:58:41;;;;;;;26.30;15.30;;;;;;;3.45;65.73;100786.84;1751742;80;21551;-69
2021/10/11 02:01:08;;;;;;;23.55;16.02;;;;;;;3.58;65.82;100783.84;1746908;80;20968;-68
2021/10/11 02:03:35;;;;;;;30.65;16.00;;;;;;;3.55;65.80;100782.55;1749856;80;21563;-77
2021/10/11 02:06:03;;;;;;;32.93;17.37;;;;;;;3.49;65.74;100787.29;1727150;80;21762;-69
2021/10/11 02:08:31;;;;;;;25.23;17.02;;;;;;;3.46;65.73;100784.66;1730218;80;21544;-70
2021/10/11 02:10:58;;;;;;;34.83;17.70;;;;;;;3.42;65.77;100779.87;1753622;80;21549;-70
2021/10/11 02:13:25;;;;;;;26.67;17.70;;;;;;;3.42;65.88;100775.98;1762730;80;21552;-71
2021/10/11 02:15:53;;;;;;;27.65;17.17;;;;;;;3.42;65.94;100771.22;1729829;80;21442;-70
2021/10/11 02:18:23;;;;;;;32.15;17.62;;;;;;;3.43;66.06;100768.63;1751268;80;25563;-70
2021/10/11 02:20:52;;;;;;;29.20;17.60;;;;;;;3.46;65.89;100767.32;1749619;80;21654;-71
2021/10/11 02:23:19;;;;;;;29.75;18.92;;;;;;;3.43;66.03;100758.67;1742585;79;21533;-69
2021/10/11 02:25:47;;;;;;;33.10;18.65;;;;;;;3.43;66.02;100759.97;1735634;80;21446;-70
2021/10/11 02:28:14;;;;;;;26.52;18.00;;;;;;;3.42;66.18;100759.52;1722189;80;27296;-70
2021/10/11 02:30:42;;;;;;;31.65;18.77;;;;;;;3.41;66.16;100756.05;1752057;79;21752;-68
2021/10/11 02:33:09;;;;;;;32.42;18.57;;;;;;;3.41;66.16;100753.86;1745199;80;21427;-70
2021/10/11 02:35:37;;;;;;;31.95;16.93;;;;;;;3.40;66.25;100747.80;1649815;83;21519;-70
2021/10/11 02:38:04;;;;;;;25.60;16.90;;;;;;;3.48;66.78;100746.53;1731061;80;21506;-70
2021/10/11 02:40:33;;;;;;;24.67;17.00;;;;;;;3.72;66.78;100745.75;1752163;79;21603;-69
2021/10/11 02:43:00;;;;;;;28.98;18.23;;;;;;;3.74;66.68;100738.81;1740375;80;22113;-69
2021/10/11 02:45:28;;;;;;;30.02;17.52;;;;;;;3.76;66.74;100740.98;1737348;80;21659;-70
2021/10/11 02:47:55;;;;;;;29.10;18.77;;;;;;;3.76;66.41;100738.83;1738308;80;21567;-70
2021/10/11 02:50:24;;;;;;;31.65;18.95;;;;;;;3.69;66.25;100737.52;1744890;80;21611;-70
2021/10/11 02:52:51;;;;;;;32.50;18.23;;;;;;;3.64;66.21;100735.33;1748892;80;21541;-70
2021/10/11 02:55:19;;;;;;;33.65;19.20;;;;;;;3.63;66.37;100733.58;1740482;79;21730;-71
2021/10/11 02:57:46;;;;;;;34.55;19.80;;;;;;;3.61;66.21;100726.20;1748273;80;21583;-71
2021/10/11 03:00:14;;;;;;;28.50;19.48;;;;;;;3.58;66.17;100724.91;1747163;80;21514;-71
2021/10/11 03:02:44;;;;;;;30.20;18.92;;;;;;;3.54;66.06;100722.28;1743057;79;21521;-71
2021/10/11 03:05:11;;;;;;;29.18;19.02;;;;;;;3.48;66.20;100725.32;1730415;80;21498;-71
2021/10/11 03:07:39;;;;;;;38.28;19.95;;;;;;;3.46;66.26;100724.42;1746976;80;21866;-71
2021/10/11 03:10:07;;;;;;;29.75;18.57;;;;;;;3.48;66.21;100718.82;1738733;79;21412;-71
2021/10/11 03:12:35;;;;;;;30.45;19.30;;;;;;;3.49;66.18;100715.34;1750721;80;21566;-70
2021/10/11 03:15:07;;;;;;;35.50;18.20;;;;;;;3.46;66.00;100710.56;1740551;80;21514;-71
2021/10/11 03:17:35;;;;;;;28.60;18.25;;;;;;;3.47;66.43;100711.02;1687794;80;21542;-71
2021/10/11 03:20:04;;;;;;;29.82;17.85;;;;;;;3.60;66.58;100709.29;1730855;80;22438;-70
2021/10/11 03:22:31;;;;;;;30.12;18.42;;;;;;;3.59;66.62;100704.97;1740754;80;21548;-70
2021/10/11 03:25:01;;;;;;;31.62;18.32;;;;;;;3.59;66.59;100698.47;1744779;80;21013;-71
2021/10/11 03:27:29;;;;;;;26.00;17.92;;;;;;;3.57;66.62;100699.76;1733541;80;21514;-72
2021/10/11 03:29:56;;;;;;;27.58;18.15;;;;;;;3.56;66.53;100696.73;1745838;80;21553;-71
2021/10/11 03:32:22;;;;;;;27.83;18.30;;;;;;;3.50;66.33;100694.98;1738751;80;21806;-70
2021/10/11 03:34:49;;;;;;;26.57;17.75;;;;;;;3.44;66.17;100696.69;1743063;79;21408;-71
2021/10/11 03:37:17;;;;;;;28.55;18.57;;;;;;;3.39;66.03;100694.49;1739846;80;21500;-71
2021/10/11 03:39:44;;;;;;;30.27;17.60;;;;;;;3.31;66.02;100690.57;1753980;79;21596;-70
2021/10/11 03:42:15;;;;;;;34.65;18.70;;;;;;;3.25;66.07;100697.05;1746031;80;21553;-70
2021/10/11 03:44:42;;;;;;;27.20;17.23;;;;;;;3.26;66.34;100697.51;1734193;80;21789;-67
2021/10/11 03:47:10;;;;;;;28.20;17.90;;;;;;;3.24;66.43;100694.89;1743922;80;22182;-67
2021/10/11 03:49:36;;;;;;;29.65;18.15;;;;;;;3.23;66.45;100688.39;1744810;79;21555;-68
2021/10/11 03:52:05;;;;;;;26.27;16.10;;;;;;;3.21;66.47;100688.37;1741387;80;21458;-69
2021/10/11 03:54:34;;;;;;;25.30;16.12;;;;;;;3.24;66.60;100688.40;1740805;79;21882;-73
2021/10/11 03:57:02;;;;;;;26.42;16.90;;;;;;;3.35;66.73;100682.36;1737939;80;21505;-74
2021/10/11 03:59:28;;;;;;;28.52;17.77;;;;;;;3.28;66.67;100685.38;1746981;80;21554;-71
2021/10/11 04:01:55;;;;;;;30.43;18.37;;;;;;;3.20;66.89;100686.66;1753936;79;21557;-73
2021/10/11 04:04:23;;;;;;;31.37;17.77;;;;;;;3.17;66.99;100682.73;1729194;80;21291;-72
2021/10/11 04:06:53;;;;;;;28.62;18.60;;;;;;;3.15;67.17;100688.80;1748653;80;21584;-73
2021/10/11 04:09:26;;;;;;;27.73;19.25;;;;;;;3.18;67.23;100684.89;1746617;80;21811;-71
2021/10/11 04:11:49;;;;;;;34.38;18.35;;;;;;;3.21;67.15;100684.91;1748428;80;20929;-72
2021/10/11 04:14:16;;;;;;;30.32;19.02;;;;;;;3.22;66.93;100684.03;1739467;80;21040;-69
2021/10/11 04:16:43;;;;;;;34.33;19.15;;;;;;;3.17;66.80;100681.43;1739996;80;21623;-72
2021/10/11 04:19:12;;;;;;;26.62;18.12;;;;;;;3.11;66.64;100674.92;1758788;80;21454;-70
2021/10/11 04:21:42;;;;;;;31.52;18.87;;;;;;;3.04;66.50;100672.71;1734710;80;21735;-70
2021/10/11 04:24:09;;;;;;;30.15;18.55;;;;;;;2.97;66.82;100672.23;1750742;80;21543;-70
2021/10/11 04:26:36;;;;;;;29.52;17.57;;;;;;;2.94;66.79;100664.45;1748571;80;21549;-69
2021/10/11 04:29:05;;;;;;;24.75;16.05;;;;;;;2.96;67.35;100658.83;1736572;80;20962;-70
2021/10/11 04:31:33;;;;;;;33.88;19.27;;;;;;;3.13;67.65;100666.70;1748017;80;21025;-69
2021/10/11 04:34:01;;;;;;;33.38;18.70;;;;;;;3.14;67.77;100664.52;1757322;79;22139;-70
2021/10/11 04:36:30;;;;;;;29.87;19.67;;;;;;;3.11;67.81;100666.69;1747850;79;21143;-70
2021/10/11 04:38:57;;;;;;;33.78;17.45;;;;;;;3.08;67.61;100661.91;1754865;79;21679;-69
2021/10/11 04:41:33;;;;;;;33.80;19.90;;;;;;;3.04;67.53;100667.52;1751266;80;21045;-71
2021/10/11 04:44:00;;;;;;;29.05;17.77;;;;;;;3.01;67.56;100671.83;1727216;80;21620;-71
2021/10/11 04:46:27;;;;;;;30.33;18.20;;;;;;;2.97;67.59;100668.78;1719375;80;21833;-71
2021/10/11 04:48:59;;;;;;;24.98;17.42;;;;;;;2.96;67.71;100662.72;1748065;79;21534;-69
2021/10/11 04:51:26;;;;;;;29.02;18.42;;;;;;;2.97;67.78;100661.84;1755642;80;21484;-71
2021/10/11 04:53:55;;;;;;;35.85;19.75;;;;;;;3.00;67.77;100659.27;1748348;80;21530;-70
2021/10/11 04:56:23;;;;;;;23.62;17.05;;;;;;;3.03;67.92;100655.81;1749920;80;21588;-72
2021/10/11 04:58:50;;;;;;;27.30;16.70;;;;;;;3.11;68.13;100655.43;1757437;79;21762;-71
2021/10/11 05:01:21;;;;;;;27.32;16.95;;;;;;;3.28;68.18;100656.34;1754463;80;21459;-71
2021/10/11 05:03:47;;;;;;;25.95;17.12;;;;;;;3.36;68.34;100658.11;1751126;80;21047;-71
2021/10/11 05:06:14;;;;;;;27.65;17.55;;;;;;;3.41;68.29;100649.45;1763009;80;21867;-72
2021/10/11 05:08:41;;;;;;;30.17;18.95;;;;;;;3.46;68.26;100645.11;1753513;80;21605;-72
2021/10/11 05:11:10;;;;;;;30.27;19.77;;;;;;;3.47;68.37;100646.86;1748009;80;21772;-76
2021/10/11 05:13:38;;;;;;;32.13;19.37;;;;;;;3.50;68.32;100648.59;1749597;80;21532;-76
2021/10/11 05:16:14;;;;;;;33.10;20.05;;;;;;;3.55;68.51;100647.31;1751148;80;21550;-74
2021/10/11 05:18:38;;;;;;;31.52;20.05;;;;;;;3.63;68.58;100650.78;1752188;80;21576;-73
2021/10/11 05:21:06;;;;;;;30.48;18.65;;;;;;;3.71;68.49;100650.36;1744358;80;21520;-72
2021/10/11 05:23:33;;;;;;;29.70;19.00;;;;;;;3.83;68.82;100646.92;1741846;80;21565;-72
2021/10/11 05:26:00;;;;;;;33.70;19.20;;;;;;;4.06;68.61;100643.02;1741099;80;21631;-71
2021/10/11 05:28:27;;;;;;;25.55;19.32;;;;;;;4.16;68.56;100635.62;1750536;80;20977;-72
2021/10/11 05:30:54;;;;;;;28.07;19.50;;;;;;;4.21;68.58;100635.20;1746597;80;21505;-72
2021/10/11 05:33:22;;;;;;;;;;;;;;;4.28;68.65;100634.33;1743370;80;21652;-72
2021/10/11 05:35:50;;;;;;;;;;;;;;;4.36;69.05;100631.71;1744589;80;21823;-73
2021/10/11 05:38:17;;;;;;;36.55;20.23;;;;;;;4.43;68.95;100632.58;1747491;79;20528;-72
2021/10/11 05:40:44;;;;;;;35.25;21.65;;;;;;;4.48;68.38;100628.20;1742724;80;21476;-70
2021/10/11 05:43:11;;;;;;;40.40;22.05;;;;;;;4.55;68.25;100626.47;1745722;79;21554;-70
2021/10/11 05:45:39;;;;;;;29.77;20.85;;;;;;;4.63;67.94;100628.61;1729003;80;21546;-74
2021/10/11 05:48:06;;;;;;;36.15;22.55;;;;;;;4.71;67.78;100632.49;1740151;80;21728;-71
2021/10/11 05:50:33;;;;;;;34.53;20.23;;;;;;;4.78;67.56;100631.61;1748879;80;21538;-72
2021/10/11 05:53:01;;;;;;;30.95;19.37;;;;;;;4.94;67.82;100628.08;1739322;80;21013;-72
2021/10/11 05:55:30;;;;;;;32.75;21.12;;;;;;;5.21;67.57;100629.69;1743249;80;21522;-73
2021/10/11 05:57:57;;;;;;;36.88;22.73;;;;;;;5.39;67.41;100631.78;1755438;80;21062;-72
2021/10/11 06:00:24;;;;;;;40.70;21.37;;;;;;;5.50;67.48;100632.59;1742927;80;21790;-72
2021/10/11 06:02:51;;;;;;;34.00;23.20;;;;;;;5.57;67.37;100630.34;1738885;80;21051;-71
2021/10/11 06:05:18;;;;;;;35.45;21.25;;;;;;;5.65;67.21;100633.78;1739972;80;21013;-71
2021/10/11 06:07:45;;;;;;;33.65;21.90;;;;;;;5.75;66.89;100641.55;1736749;80;21009;-73
2021/10/11 06:10:12;;;;;;;31.82;21.23;;;;;;;5.82;66.35;100640.19;1742869;80;21501;-75
2021/10/11 06:12:40;;;;;;;32.50;20.82;;;;;;;5.90;65.69;100633.61;1746932;80;21750;-69
2021/10/11 06:15:08;;;;;;;30.52;21.10;;;;;;;5.95;64.90;100636.16;1733919;80;21399;-75
2021/10/11 06:17:36;;;;;;;40.23;21.50;;;;;;;6.01;64.36;100641.39;1762801;80;21617;-68
2021/10/11 06:20:05;;;;;;;31.42;19.40;;;;;;;6.06;64.11;100646.56;1742616;80;21541;-67
2021/10/11 06:22:32;;;;;;;33.63;20.70;;;;;;;6.12;63.65;100644.78;1722713;80;21620;-65
2021/10/11 06:24:58;;;;;;;32.53;21.02;;;;;;;6.17;63.54;100640.36;1747968;80;22123;-61
2021/10/11 06:27:27;;;;;;;31.63;21.17;;;;;;;6.24;63.50;100636.81;1755135;79;21708;-62
2021/10/11 06:29:54;;;;;;;28.75;21.17;;;;;;;6.33;63.53;100638.91;1747127;80;21499;-63
2021/10/11 06:32:21;;;;;;;33.95;20.37;;;;;;;6.42;63.38;100637.52;1749102;80;21470;-60
2021/10/11 06:34:48;;;;;;;30.48;19.85;;;;;;;6.49;63.03;100635.72;1743341;80;21571;-64
2021/10/11 06:37:15;;;;;;;30.52;19.98;;;;;;;6.58;62.36;100638.24;1745559;79;21814;-64
2021/10/11 06:39:43;;;;;;;30.37;20.08;;;;;;;6.64;61.58;100638.17;1746658;79;21056;-65
2021/10/11 06:42:09;;;;;;;40.12;20.95;;;;;;;6.70;60.86;100633.31;1741878;79;21494;-64
2021/10/11 06:44:37;;;;;;;29.12;21.30;;;;;;;6.75;61.09;100632.38;1751814;79;21524;-64
2021/10/11 06:47:05;;;;;;;30.80;20.40;;;;;;;6.84;60.33;100627.50;1750717;80;21597;-64
2021/10/11 06:49:33;;;;;;;32.20;19.98;;;;;;;6.92;59.66;100620.42;1747042;80;21195;-63
2021/10/11 06:52:00;;;;;;;30.92;20.17;;;;;;;6.96;59.68;100616.87;1737932;80;20989;-63
2021/10/11 06:54:30;;;;;;;26.90;19.48;;;;;;;7.05;59.97;100618.97;1746636;80;21564;-63
2021/10/11 06:56:57;;;;;;;30.10;19.90;;;;;;;7.15;59.61;100611.42;1753018;80;21659;-63
2021/10/11 06:59:24;;;;;;;30.05;19.20;;;;;;;7.25;59.61;100609.09;1753839;80;21478;-64
2021/10/11 07:01:51;;;;;;;29.80;20.68;;;;;;;7.38;59.19;100601.94;1753634;79;21810;-63
2021/10/11 07:04:18;;;;;;;36.08;20.05;;;;;;;7.50;58.91;100599.61;1751899;80;21565;-64
2021/10/11 07:06:44;;;;;;;29.87;19.90;;;;;;;7.63;58.53;100601.15;1748503;79;21519;-65
2021/10/11 07:09:13;;;;;;;30.17;20.23;;;;;;;7.73;58.50;100597.48;1747414;80;21557;-63
2021/10/11 07:11:40;;;;;;;35.23;20.23;;;;;;;7.84;58.34;100592.08;1743812;80;21589;-63
2021/10/11 07:14:07;;;;;;;34.73;20.97;;;;;;;7.97;57.92;100590.13;1754480;80;21987;-63
2021/10/11 07:16:34;;;;;;;30.20;19.77;;;;;;;8.07;57.48;100596.92;1747852;80;21546;-62
2021/10/11 07:19:01;;;;;;;32.78;19.35;;;;;;;8.16;57.01;100591.53;1751253;79;21577;-63
2021/10/11 07:21:27;;;;;;;34.92;21.00;;;;;;;8.25;56.77;100585.69;1753484;80;21542;-63
2021/10/11 07:23:54;;;;;;;32.10;20.82;;;;;;;8.35;56.87;100580.27;1739629;80;21572;-62
2021/10/11 07:26:21;;;;;;;32.60;20.48;;;;;;;8.49;56.72;100583.09;1748363;80;21991;-61
2021/10/11 07:28:47;;;;;;;34.88;21.02;;;;;;;8.61;56.43;100576.74;1744008;80;21537;-62
2021/10/11 07:31:14;;;;;;;30.20;20.20;;;;;;;8.75;56.22;100579.97;1749413;80;21544;-65
2021/10/11 07:33:42;;;;;;;30.70;20.43;;;;;;;8.86;55.40;100581.92;1751034;80;21455;-66
2021/10/11 07:36:09;;;;;;;28.62;20.62;;;;;;;8.93;55.52;100573.48;1746617;79;21538;-65
2021/10/11 07:38:36;;;;;;;32.28;21.05;;;;;;;9.05;55.41;100581.54;1747633;80;21778;-65
2021/10/11 07:41:04;;;;;;;;;;;;;;;9.18;54.76;100577.74;1744697;80;21499;-65
2021/10/11 07:43:31;;;;;;;34.23;20.70;;;;;;;9.29;54.11;100573.13;1751150;80;20162;-63
2021/10/11 07:46:03;;;;;;;30.00;19.80;;;;;;;9.40;54.18;100573.31;1738503;79;21474;-65
2021/10/11 07:48:26;;;;;;;29.85;20.48;;;;;;;9.52;53.84;100567.33;1747471;80;21479;-65
2021/10/11 07:50:53;;;;;;;33.20;22.50;;;;;;;9.66;53.39;100567.02;1735370;80;21538;-64
2021/10/11 07:53:20;;;;;;;30.72;19.85;;;;;;;9.77;52.64;100564.56;1759278;80;21605;-65
2021/10/11 07:55:47;;;;;;;31.07;19.37;;;;;;;9.87;50.00;100565.62;1738386;80;21437;-63
2021/10/11 07:58:14;;;;;;;30.57;20.07;;;;;;;9.92;51.24;100563.72;1738167;80;21493;-64
2021/10/11 08:00:41;;;;;;;25.10;17.67;;;;;;;10.04;51.20;100562.56;1748014;80;21559;-64
2021/10/11 08:03:08;;;;;;;22.60;15.72;;;;;;;10.17;50.26;100564.84;1742046;79;22038;-63
2021/10/11 08:05:37;;;;;;;28.02;15.95;;;;;;;10.23;48.77;100558.99;1747800;80;21498;-64
2021/10/11 08:08:05;;;;;;;25.90;16.17;;;;;;;10.30;50.20;100554.41;1744295;79;21036;-65
2021/10/11 08:10:33;;;;;;;;;;;;;;;10.42;49.96;100555.44;1752701;80;21564;-64
2021/10/11 08:13:01;;;;;;;23.67;14.87;;;;;;;10.57;49.34;100551.52;1743257;80;20468;-61
2021/10/11 08:15:29;;;;;;;21.10;13.83;;;;;;;10.71;49.77;100555.06;1751008;80;22156;-61
2021/10/11 08:17:56;;;;;;;21.07;14.07;;;;;;;10.93;48.18;100549.19;1756868;79;21596;-61
2021/10/11 08:20:24;;;;;;;24.32;15.68;;;;;;;11.03;48.13;100544.05;1760648;80;21493;-60
2021/10/11 08:22:51;;;;;;;19.95;15.28;;;;;;;11.16;48.49;100540.12;1750026;80;20993;-60
2021/10/11 08:25:19;;;;;;;22.27;16.17;;;;;;;11.32;47.67;100527.80;1749594;80;21571;-63
2021/10/11 08:27:46;;;;;;;28.60;17.07;;;;;;;11.44;47.91;100529.59;1749874;80;21542;-64
2021/10/11 08:32:33;;;;;;;27.15;16.93;;;;;;;11.77;47.55;100513.59;1789244;79;23257;-68
2021/10/11 08:35:00;;;;;;;28.65;17.17;;;;;;;11.83;47.62;100511.21;1753967;80;21609;-65
2021/10/11 08:37:27;;;;;;;21.00;16.52;;;;;;;11.92;47.46;100508.73;1752644;80;21581;-64
2021/10/11 08:39:55;;;;;;;19.77;15.55;;;;;;;12.04;47.00;100506.53;1744798;80;21556;-64
2021/10/11 08:42:22;;;;;;;24.57;15.65;;;;;;;12.18;46.71;100504.71;1735009;80;21576;-63
2021/10/11 08:44:50;;;;;;;27.37;16.50;;;;;;;12.29;46.87;100497.75;1749059;80;21455;-63
2021/10/11 08:47:20;;;;;;;22.17;16.17;;;;;;;12.43;46.62;100500.75;1751280;80;21482;-63
2021/10/11 08:49:49;;;;;;;24.00;14.23;;;;;;;12.58;46.12;100496.69;1747004;80;21608;-63
2021/10/11 08:52:21;;;;;;;20.08;13.05;;;;;;;12.73;45.44;100496.53;1754645;80;21640;-62
2021/10/11 08:54:48;;;;;;;18.87;12.75;;;;;;;12.85;44.93;100482.88;1745036;80;21515;-63
2021/10/11 08:57:30;;;;;;;16.55;12.65;;;;;;;13.01;45.03;100488.41;1755606;80;21691;-63
2021/10/11 09:00:16;;;;;;;15.45;12.58;;;;;;;13.18;44.79;100486.89;1759593;80;21534;-63
2021/10/11 09:03:10;;;;;;;15.00;11.65;;;;;;;13.33;43.97;100488.94;1757951;80;21970;-62
2021/10/11 09:05:40;;;;;;;14.18;10.13;;;;;;;13.46;43.29;100485.33;1666744;83;21541;-62
2021/10/11 09:08:14;;;;;;;18.17;11.15;;;;;;;13.62;42.80;100480.28;1661007;84;21565;-63
2021/10/11 09:10:57;;;;;;;13.28;10.50;;;;;;;13.77;42.58;100476.98;1667740;85;21535;-62
2021/10/11 09:13:43;;;;;;;17.42;10.72;;;;;;;13.93;41.80;100474.53;1654582;83;21038;-65
2021/10/11 09:16:31;;;;;;;17.35;9.90;;;;;;;14.07;41.53;100467.77;1645063;85;21606;-62
2021/10/11 09:19:17;;;;;;;12.98;10.35;;;;;;;14.21;40.96;100462.73;1641883;86;21542;-62
2021/10/11 09:21:43;;;;;;;12.73;9.88;;;;;;;14.32;40.32;100447.72;1651745;85;21530;-61
2021/10/11 09:24:14;;;;;;;15.63;9.28;;;;;;;14.49;40.57;100449.59;1663361;85;21701;-62
2021/10/11 09:26:51;;;;;;;18.75;9.83;;;;;;;14.74;40.27;100451.50;1624481;85;21601;-67
2021/10/11 09:29:33;;;;;;;11.08;8.50;;;;;;;14.99;39.39;100443.70;1666460;85;22158;-61
2021/10/11 09:32:05;;;;;;;16.05;9.30;;;;;;;15.22;38.69;100440.40;1658044;85;21482;-63
2021/10/11 09:34:35;;;;;;;13.83;8.68;;;;;;;15.41;37.88;100435.91;1668577;84;21053;-62
2021/10/11 09:37:05;;;;;;;12.15;8.30;;;;;;;15.61;37.66;100427.41;1661287;83;21451;-62
2021/10/11 09:39:37;;;;;;;11.43;8.23;;;;;;;15.83;37.76;100428.52;1667063;83;21119;-63
2021/10/11 09:42:07;;;;;;;9.20;8.23;;;;;;;16.04;36.90;100429.19;1644969;83;21656;-64
2021/10/11 09:44:35;;;;;;;11.65;8.60;;;;;;;16.22;36.75;100437.94;1669810;83;21669;-62
2021/10/11 09:47:08;;;;;;;18.82;9.98;;;;;;;16.16;36.52;100383.41;1642047;85;21046;-62
2021/10/11 09:49:32;;;;;;;13.18;8.65;;;;;;;16.74;36.83;100428.01;1664422;83;21034;-63
2021/10/11 09:52:00;;;;;;;13.00;8.43;;;;;;;17.09;36.26;100427.82;1670962;85;21531;-63
2021/10/11 09:54:28;;;;;;;16.23;9.28;;;;;;;17.43;35.73;100420.55;1665683;84;21656;-65
2021/10/11 09:56:55;;;;;;;11.08;9.05;;;;;;;17.66;35.12;100422.30;1663115;83;21484;-64
2021/10/11 09:59:21;;;;;;;11.10;8.60;;;;;;;17.82;34.70;100416.91;1667298;84;21045;-65
2021/10/11 10:01:48;;;;;;;12.65;9.20;;;;;;;17.97;34.12;100410.70;1663353;83;21670;-64
2021/10/11 10:04:26;;;;;;;12.40;9.58;;;;;;;18.03;33.18;100412.98;1665783;84;21589;-63
2021/10/11 10:06:56;;;;;;;10.38;9.20;;;;;;;18.08;33.61;100406.03;1658035;85;22866;-64
2021/10/11 10:09:23;;;;;;;;;;;;;;;18.12;32.55;100407.58;1655553;85;21535;-64
2021/10/11 10:11:52;;;;;;;11.65;7.33;;;;;;;18.11;31.66;100408.52;1657504;85;20461;-63
2021/10/11 10:14:25;;;;;;;14.60;7.30;;;;;;;18.04;32.65;100400.04;1648131;85;21102;-64
2021/10/11 10:16:54;;;;;;;10.93;8.20;;;;;;;18.02;32.55;100399.77;1640594;85;21551;-64
2021/10/11 10:19:34;;;;;;;18.17;9.68;;;;;;;18.01;32.62;100407.38;1654213;85;21743;-64
2021/10/11 10:22:16;;;;;;;11.90;9.50;;;;;;;17.98;32.19;100401.75;1656533;84;20983;-64
2021/10/11 10:24:47;;;;;;;12.45;8.53;;;;;;;17.88;32.39;100394.82;1677389;82;21540;-65
2021/10/11 10:27:14;;;;;;;11.15;8.45;;;;;;;17.81;32.30;100389.45;1690382;84;21580;-65
2021/10/11 10:29:49;;;;;;;11.30;8.87;;;;;;;17.73;32.36;100389.56;1678521;84;21587;-65
2021/10/11 10:32:18;;;;;;;11.03;8.30;;;;;;;17.69;32.55;100385.75;1689391;84;21771;-64
2021/10/11 10:34:47;;;;;;;12.93;8.68;;;;;;;17.65;32.76;100379.36;1682587;84;21671;-65
2021/10/11 10:37:14;;;;;;;11.38;8.33;;;;;;;17.58;32.89;100372.25;1683333;84;21668;-63
2021/10/11 10:39:48;;;;;;;14.85;8.00;;;;;;;17.56;32.92;100370.64;1683861;84;21536;-64
2021/10/11 10:42:27;;;;;;;15.55;8.20;;;;;;;17.58;32.48;100374.06;1684124;83;20963;-61
2021/10/11 10:44:57;;;;;;;9.43;7.50;;;;;;;17.53;32.56;100365.02;1681405;84;21829;-71
2021/10/11 10:47:37;;;;;;;8.95;6.67;;;;;;;17.39;32.58;100359.70;1644730;84;21075;-73
2021/10/11 10:50:12;;;;;;;8.08;6.42;;;;;;;17.30;32.81;100363.74;1680725;84;21091;-75
2021/10/11 10:52:42;;;;;;;8.70;7.10;;;;;;;17.14;32.97;100354.50;1690755;84;21618;-74
2021/10/11 10:55:10;;;;;;;9.58;7.72;;;;;;;17.07;33.51;100347.35;1683016;84;21079;-72
2021/10/11 10:57:37;;;;;;;13.43;7.83;;;;;;;17.07;33.76;100346.03;1619828;84;21791;-74
2021/10/11 11:00:13;;;;;;;8.65;7.67;;;;;;;17.10;33.41;100336.56;1679933;84;21512;-76
2021/10/11 11:02:48;;;;;;;12.95;7.37;;;;;;;17.12;33.14;100330.68;1645925;86;21673;-75
2021/10/11 11:05:16;;;;;;;9.45;6.78;;;;;;;17.13;33.07;100324.41;1639660;86;21600;-76
2021/10/11 11:07:44;;;;;;;9.75;7.30;;;;;;;17.21;33.36;100320.44;1639999;86;21636;-78
2021/10/11 11:10:23;;;;;;;9.25;7.25;;;;;;;17.28;33.21;100313.81;1642149;86;21850;-70
2021/10/11 11:13:00;;;;;;;12.45;7.05;;;;;;;17.36;32.91;100314.68;1641026;86;21540;-67
2021/10/11 11:15:33;;;;;;;9.15;6.37;;;;;;;17.40;32.97;100311.73;1643395;86;21586;-67
2021/10/11 11:18:08;;;;;;;8.68;6.67;;;;;;;17.42;33.02;100311.19;1639703;86;21514;-70
2021/10/11 11:20:38;;;;;;;10.15;7.30;;;;;;;17.54;33.36;100301.60;1645983;86;21609;-68
2021/10/11 11:23:19;;;;;;;11.73;6.85;;;;;;;17.62;32.72;100299.80;1645810;85;21722;-69
2021/10/11 11:25:48;;;;;;;9.58;6.95;;;;;;;17.66;32.89;100294.66;1631020;86;21432;-70
2021/10/11 11:28:18;;;;;;;10.28;7.03;;;;;;;17.76;32.40;100289.14;1632737;86;20973;-69